createdAt,value
2023-03-31T00:02:13.710Z,83.40
2023-03-31T00:04:46.192Z,83.67
2023-03-31T00:07:16.375Z,83.36
2023-03-31T00:09:46.193Z,82.45
2023-03-31T00:12:16.584Z,82.67
2023-03-31T00:14:43.812Z,84.08
2023-03-31T00:17:11.356Z,83.57
2023-03-31T00:19:40.045Z,83.14
2023-03-31T00:22:06.456Z,83.24
2023-03-31T00:24:33.401Z,83.65
2023-03-31T00:27:01.156Z,83.84
2023-03-31T00:29:28.189Z,82.62
2023-03-31T00:31:55.461Z,82.80
2023-03-31T00:34:22.052Z,83.84
2023-03-31T00:36:48.455Z,83.69
2023-03-31T00:39:18.187Z,83.41
2023-03-31T00:41:44.911Z,82.50
2023-03-31T00:44:24.186Z,81.61
2023-03-31T00:46:53.444Z,82.18
2023-03-31T00:49:26.144Z,82.54
2023-03-31T00:51:57.035Z,82.71
2023-03-31T00:54:26.375Z,82.48
2023-03-31T00:56:58.442Z,82.60
2023-03-31T00:59:30.440Z,81.84
2023-03-31T01:02:02.633Z,81.55
2023-03-31T01:04:33.415Z,82.13
2023-03-31T01:07:35.851Z,81.85
2023-03-31T01:10:04.993Z,80.95
2023-03-31T01:12:34.250Z,82.07
2023-03-31T01:15:03.228Z,81.39
2023-03-31T01:17:30.797Z,82.41
2023-03-31T01:20:13.650Z,82.97
2023-03-31T01:22:50.192Z,81.83
2023-03-31T01:25:42.724Z,82.50
2023-03-31T01:28:21.820Z,82.29
2023-03-31T01:31:20.529Z,82.51
2023-03-31T01:34:05.602Z,82.47
2023-03-31T01:36:50.634Z,82.53
2023-03-31T01:39:41.898Z,82.18
2023-03-31T01:42:21.975Z,83.11
2023-03-31T01:44:51.178Z,82.96
2023-03-31T01:47:46.693Z,81.65
2023-03-31T01:50:35.467Z,81.61
2023-03-31T01:53:17.356Z,82.18
2023-03-31T01:55:49.829Z,82.70
2023-03-31T01:58:23.994Z,82.16
2023-03-31T02:01:01.854Z,82.10
2023-03-31T02:03:36.369Z,82.37
2023-03-31T02:06:26.765Z,81.97
2023-03-31T02:09:02.417Z,81.93
2023-03-31T02:11:31.925Z,81.98
2023-03-31T02:14:02.798Z,82.20
2023-03-31T02:16:33.478Z,82.17
2023-03-31T02:19:03.958Z,81.05
2023-03-31T02:21:33.298Z,81.09
2023-03-31T02:26:45.106Z,81.75
2023-03-31T02:29:11.511Z,83.16
2023-03-31T02:32:21.878Z,82.47
2023-03-31T02:34:48.768Z,82.82
2023-03-31T02:37:15.583Z,82.08
2023-03-31T02:39:45.617Z,82.29
2023-03-31T02:42:12.470Z,82.46
2023-03-31T02:44:40.130Z,82.03
2023-03-31T02:47:10.079Z,82.10
2023-03-31T02:49:39.293Z,81.57
2023-03-31T02:52:34.147Z,81.97
2023-03-31T02:55:22.182Z,81.79
2023-03-31T02:58:20.667Z,82.54
2023-03-31T03:00:53.042Z,80.64
2023-03-31T03:03:29.077Z,81.53
2023-03-31T03:06:20.561Z,81.91
2023-03-31T03:09:17.108Z,81.78
2023-03-31T03:11:51.635Z,82.19
2023-03-31T03:14:48.244Z,81.72
2023-03-31T03:17:23.833Z,82.08
2023-03-31T03:20:00.622Z,82.21
2023-03-31T03:22:27.785Z,81.58
2023-03-31T03:24:54.327Z,81.20
2023-03-31T03:27:22.774Z,82.09
2023-03-31T03:29:49.241Z,81.69
2023-03-31T03:32:15.953Z,82.25
2023-03-31T03:34:42.790Z,82.24
2023-03-31T03:37:09.508Z,82.93
2023-03-31T03:39:35.943Z,82.90
2023-03-31T03:42:02.617Z,82.12
2023-03-31T03:44:29.433Z,82.54
2023-03-31T03:46:55.846Z,82.08
2023-03-31T03:49:22.451Z,82.01
2023-03-31T03:51:48.888Z,81.99
2023-03-31T03:54:15.994Z,82.18
2023-03-31T03:56:42.422Z,81.89
2023-03-31T03:59:08.920Z,81.20
2023-03-31T04:01:36.047Z,82.08
2023-03-31T04:04:03.141Z,81.58
2023-03-31T04:06:29.610Z,82.40
2023-03-31T04:08:56.030Z,81.32
2023-03-31T04:11:22.552Z,81.07
2023-03-31T04:13:49.029Z,82.71
2023-03-31T04:16:16.676Z,82.73
2023-03-31T04:18:48.653Z,81.66
2023-03-31T04:21:22.710Z,82.00
2023-03-31T04:23:58.560Z,81.67
2023-03-31T04:26:31.448Z,81.50
2023-03-31T04:29:01.252Z,82.43
2023-03-31T04:31:30.642Z,81.68
2023-03-31T04:34:02.284Z,82.04
2023-03-31T04:36:31.233Z,81.75
2023-03-31T04:38:57.671Z,82.28
2023-03-31T04:41:25.352Z,82.62
2023-03-31T04:43:51.853Z,81.36
2023-03-31T04:46:18.317Z,81.96
2023-03-31T04:48:45.265Z,81.14
2023-03-31T04:51:15.178Z,81.68
2023-03-31T04:53:41.571Z,80.60
2023-03-31T04:56:08.298Z,82.21
2023-03-31T04:58:35.245Z,80.39
2023-03-31T05:01:01.867Z,80.35
2023-03-31T05:03:28.442Z,80.15
2023-03-31T05:05:55.119Z,81.29
2023-03-31T05:08:21.535Z,81.89
2023-03-31T05:10:47.961Z,81.93
2023-03-31T05:13:14.471Z,80.74
2023-03-31T05:15:41.439Z,81.23
2023-03-31T05:18:08.210Z,82.28
2023-03-31T05:20:34.769Z,81.98
2023-03-31T05:23:01.866Z,82.23
2023-03-31T05:25:32.789Z,80.83
2023-03-31T05:28:00.473Z,81.76
2023-03-31T05:30:27.582Z,80.89
2023-03-31T05:32:54.374Z,80.76
2023-03-31T05:35:20.794Z,81.90
2023-03-31T05:37:47.243Z,81.72
2023-03-31T05:40:13.698Z,81.21
2023-03-31T05:42:41.700Z,80.55
2023-03-31T05:45:09.454Z,81.84
2023-03-31T05:47:36.702Z,81.02
2023-03-31T05:50:07.540Z,81.61
2023-03-31T05:52:34.266Z,81.61
2023-03-31T05:55:00.776Z,81.77
2023-03-31T05:57:27.298Z,81.41
2023-03-31T05:59:53.765Z,80.68
2023-03-31T06:02:20.211Z,82.23
2023-03-31T06:04:46.592Z,80.46
2023-03-31T06:07:14.962Z,80.62
2023-03-31T06:09:41.492Z,80.55
2023-03-31T06:12:08.509Z,81.16
2023-03-31T06:14:34.929Z,81.02
2023-03-31T06:17:01.583Z,80.47
2023-03-31T06:19:27.988Z,80.10
2023-03-31T06:21:54.461Z,80.70
2023-03-31T06:24:21.789Z,80.81
2023-03-31T06:26:48.270Z,81.64
2023-03-31T06:29:14.735Z,80.86
2023-03-31T06:31:41.292Z,80.13
2023-03-31T06:34:07.899Z,80.89
2023-03-31T06:36:34.389Z,80.21
2023-03-31T06:39:01.597Z,79.98
2023-03-31T06:41:28.236Z,80.56
2023-03-31T06:43:54.993Z,80.90
2023-03-31T06:46:21.527Z,79.40
2023-03-31T06:48:48.034Z,79.55
2023-03-31T06:51:15.013Z,79.75
2023-03-31T06:53:41.526Z,79.43
2023-03-31T06:56:08.282Z,79.79
2023-03-31T06:58:35.182Z,79.88
2023-03-31T07:01:06.492Z,79.25
2023-03-31T07:03:33.285Z,80.50
2023-03-31T07:06:00.519Z,79.40
2023-03-31T07:08:27.014Z,78.74
2023-03-31T07:10:57.692Z,79.65
2023-03-31T07:13:25.470Z,78.96
2023-03-31T07:15:53.241Z,78.65
2023-03-31T07:18:19.869Z,78.62
2023-03-31T07:20:50.564Z,79.18
2023-03-31T07:23:17.750Z,78.32
2023-03-31T07:25:45.268Z,77.62
2023-03-31T07:28:12.116Z,78.12
2023-03-31T07:30:40.109Z,78.35
2023-03-31T07:33:07.436Z,77.91
2023-03-31T07:35:34.271Z,77.56
2023-03-31T07:38:00.831Z,78.62
2023-03-31T07:40:29.423Z,77.56
2023-03-31T07:42:56.309Z,77.78
2023-03-31T07:45:25.700Z,77.60
2023-03-31T07:47:52.981Z,77.11
2023-03-31T07:50:20.312Z,77.28
2023-03-31T07:52:47.425Z,76.25
2023-03-31T07:55:14.429Z,77.36
2023-03-31T07:57:41.416Z,76.63
2023-03-31T08:00:12.311Z,76.39
2023-03-31T08:02:42.847Z,76.98
2023-03-31T08:05:11.964Z,77.02
2023-03-31T08:07:41.725Z,77.56
2023-03-31T08:10:11.600Z,77.69
2023-03-31T08:12:38.452Z,77.54
2023-03-31T08:15:05.803Z,77.21
2023-03-31T08:17:32.325Z,77.29
2023-03-31T08:20:02.780Z,76.63
2023-03-31T08:22:31.670Z,77.04
2023-03-31T08:24:58.130Z,77.40
2023-03-31T08:27:25.998Z,76.69
2023-03-31T08:29:52.424Z,76.94
2023-03-31T08:32:18.865Z,76.80
2023-03-31T08:34:46.227Z,77.15
2023-03-31T08:37:12.661Z,77.36
2023-03-31T08:39:39.103Z,76.95
2023-03-31T08:42:16.812Z,77.10
2023-03-31T08:45:02.166Z,77.15
2023-03-31T08:47:32.427Z,76.83
2023-03-31T08:50:03.108Z,76.40
2023-03-31T08:52:34.584Z,75.65
2023-03-31T08:55:05.097Z,74.96
2023-03-31T08:57:49.278Z,76.03
2023-03-31T09:00:17.895Z,75.75
2023-03-31T09:02:53.511Z,75.50
2023-03-31T09:05:28.831Z,76.67
2023-03-31T09:08:13.243Z,76.30
2023-03-31T09:10:50.523Z,75.46
2023-03-31T09:13:17.010Z,73.67
2023-03-31T09:15:47.486Z,75.03
2023-03-31T09:18:27.844Z,74.11
2023-03-31T09:21:02.281Z,73.80
2023-03-31T09:23:48.273Z,73.82
2023-03-31T09:26:34.165Z,74.51
2023-03-31T09:29:03.928Z,74.38
2023-03-31T09:31:32.087Z,72.32
2023-03-31T09:34:02.029Z,72.73
2023-03-31T09:36:28.851Z,73.13
2023-03-31T09:38:55.569Z,73.36
2023-03-31T09:41:22.182Z,72.81
2023-03-31T09:43:50.019Z,71.78
2023-03-31T09:46:28.247Z,72.71
2023-03-31T09:49:17.844Z,73.07
2023-03-31T09:51:48.970Z,72.63
2023-03-31T09:54:45.117Z,72.46
2023-03-31T09:57:36.103Z,72.36
2023-03-31T10:00:23.697Z,72.51
2023-03-31T10:02:55.576Z,72.52
2023-03-31T10:05:43.315Z,71.79
2023-03-31T10:08:26.287Z,70.77
2023-03-31T10:11:03.026Z,70.83
2023-03-31T10:13:47.076Z,71.99
2023-03-31T10:16:49.793Z,72.96
2023-03-31T10:19:33.004Z,72.58
2023-03-31T10:22:18.384Z,72.83
2023-03-31T10:24:46.145Z,73.14
2023-03-31T10:27:25.536Z,73.21
2023-03-31T10:29:57.501Z,73.95
2023-03-31T10:32:29.163Z,74.14
2023-03-31T10:34:57.878Z,74.15
2023-03-31T10:37:27.149Z,73.53
2023-03-31T10:40:13.971Z,73.96
2023-03-31T10:42:40.634Z,72.96
2023-03-31T10:45:36.419Z,73.74
2023-03-31T10:48:04.479Z,74.10
2023-03-31T10:50:36.451Z,73.63
2023-03-31T10:53:12.984Z,73.50
2023-03-31T10:55:52.939Z,74.27
2023-03-31T10:58:58.325Z,74.18
2023-03-31T11:02:01.077Z,75.79
2023-03-31T11:05:01.890Z,76.01
2023-03-31T11:07:40.312Z,75.85
2023-03-31T11:10:28.187Z,76.72
2023-03-31T11:13:14.017Z,78.12
2023-03-31T11:16:09.148Z,78.63
2023-03-31T11:19:07.119Z,78.35
2023-03-31T11:21:51.896Z,79.32
2023-03-31T11:25:01.315Z,80.33
2023-03-31T11:27:42.379Z,80.65
2023-03-31T11:30:24.312Z,80.54
2023-03-31T11:33:03.091Z,80.74
2023-03-31T11:35:43.754Z,80.68
2023-03-31T11:38:12.944Z,80.60
2023-03-31T11:41:03.855Z,80.84
2023-03-31T11:43:39.994Z,80.21
2023-03-31T11:46:27.805Z,80.45
2023-03-31T11:49:06.505Z,79.60
2023-03-31T11:51:39.118Z,78.14
2023-03-31T11:54:12.125Z,77.75
2023-03-31T11:56:41.260Z,77.46
2023-03-31T11:59:14.789Z,75.42
2023-03-31T12:01:48.417Z,76.12
2023-03-31T12:04:23.997Z,75.75
2023-03-31T12:06:55.488Z,76.39
2023-03-31T12:09:39.182Z,75.93
2023-03-31T12:12:14.278Z,75.37
2023-03-31T12:14:47.670Z,75.08
2023-03-31T12:17:19.091Z,75.74
2023-03-31T12:19:51.548Z,75.47
2023-03-31T12:22:20.972Z,74.97
2023-03-31T12:24:47.601Z,75.05
2023-03-31T12:27:32.719Z,75.58
2023-03-31T12:30:27.568Z,74.08
2023-03-31T12:32:59.149Z,74.49
2023-03-31T12:35:53.287Z,73.92
2023-03-31T12:38:47.355Z,74.17
2023-03-31T12:41:24.464Z,74.33
2023-03-31T12:43:56.749Z,74.50
2023-03-31T12:46:35.281Z,75.46
2023-03-31T12:49:20.412Z,75.69
2023-03-31T12:52:28.792Z,77.50
2023-03-31T12:55:09.588Z,79.09
2023-03-31T12:57:36.464Z,79.60
2023-03-31T13:00:07.841Z,80.24
2023-03-31T13:02:34.386Z,80.82
2023-03-31T13:05:40.843Z,80.63
2023-03-31T13:08:08.604Z,81.19
2023-03-31T13:10:59.946Z,80.46
2023-03-31T13:13:26.849Z,80.95
2023-03-31T13:15:59.740Z,81.61
2023-03-31T13:18:27.930Z,81.13
2023-03-31T13:21:05.547Z,81.48
2023-03-31T13:23:36.028Z,81.61
2023-03-31T13:26:03.242Z,82.46
2023-03-31T13:28:42.296Z,82.57
2023-03-31T13:31:11.110Z,82.15
2023-03-31T13:33:42.717Z,82.49
2023-03-31T13:36:38.225Z,83.07
2023-03-31T13:39:28.006Z,83.35
2023-03-31T13:42:41.465Z,82.69
2023-03-31T13:45:26.615Z,82.64
2023-03-31T13:48:22.181Z,82.15
2023-03-31T13:51:13.522Z,81.95
2023-03-31T13:54:12.243Z,80.93
2023-03-31T13:57:05.730Z,81.09
2023-03-31T13:59:32.163Z,80.55
2023-03-31T14:02:29.675Z,81.00
2023-03-31T14:05:05.690Z,80.31
2023-03-31T14:07:37.001Z,80.63
2023-03-31T14:10:04.405Z,81.22
2023-03-31T14:12:37.169Z,80.91
2023-03-31T14:15:06.930Z,80.98
2023-03-31T14:17:37.557Z,81.35
2023-03-31T14:20:12.786Z,81.84
2023-03-31T14:23:14.292Z,81.29
2023-03-31T14:25:58.003Z,81.25
2023-03-31T14:28:46.603Z,81.76
2023-03-31T14:31:23.420Z,82.01
2023-03-31T14:34:19.354Z,82.30
2023-03-31T14:36:57.670Z,82.41
2023-03-31T14:39:28.757Z,83.09
2023-03-31T14:41:59.381Z,83.63
2023-03-31T14:44:26.823Z,82.87
2023-03-31T14:46:57.315Z,82.54
2023-03-31T14:49:48.442Z,83.23
2023-03-31T14:52:20.947Z,83.15
2023-03-31T14:54:47.977Z,82.97
2023-03-31T14:57:21.551Z,83.50
2023-03-31T14:59:51.602Z,84.00
2023-03-31T15:02:24.675Z,83.26
2023-03-31T15:04:51.595Z,83.46
2023-03-31T15:07:18.142Z,84.32
2023-03-31T15:09:49.895Z,84.13
2023-03-31T15:12:18.526Z,83.03
2023-03-31T15:14:48.055Z,83.07
2023-03-31T15:17:35.233Z,83.41
2023-03-31T15:20:20.514Z,83.54
2023-03-31T15:22:47.081Z,81.82
2023-03-31T15:25:18.438Z,83.18
2023-03-31T15:27:52.795Z,81.52
2023-03-31T15:30:23.450Z,82.33
2023-03-31T15:32:50.681Z,83.19
2023-03-31T15:35:24.849Z,82.20
2023-03-31T15:37:54.124Z,83.09
2023-03-31T15:40:32.621Z,83.00
2023-03-31T15:45:47.721Z,82.71
2023-03-31T15:48:21.054Z,83.51
2023-03-31T15:50:48.303Z,82.78
2023-03-31T15:53:31.801Z,83.52
2023-03-31T15:56:00.042Z,83.36
2023-03-31T15:58:47.018Z,82.73
2023-03-31T16:01:17.509Z,83.59
2023-03-31T16:03:45.624Z,84.25
2023-03-31T16:06:18.294Z,83.97
2023-03-31T16:08:52.968Z,84.44
2023-03-31T16:11:35.052Z,84.78
2023-03-31T16:14:09.462Z,83.68
2023-03-31T16:16:36.978Z,84.26
2023-03-31T16:19:09.933Z,83.98
2023-03-31T16:21:47.499Z,83.02
2023-03-31T16:24:15.512Z,82.17
2023-03-31T16:26:42.420Z,82.35
2023-03-31T16:29:09.024Z,82.64
2023-03-31T16:31:39.238Z,83.25
2023-03-31T16:34:08.870Z,82.30
2023-03-31T16:36:35.629Z,83.56
2023-03-31T16:39:05.000Z,82.57
2023-03-31T16:41:37.624Z,82.56
2023-03-31T16:44:04.440Z,83.00
2023-03-31T16:46:31.106Z,82.43
2023-03-31T16:48:57.717Z,83.13
2023-03-31T16:51:24.636Z,83.26
2023-03-31T16:53:51.483Z,83.53
2023-03-31T16:56:17.990Z,82.72
2023-03-31T16:58:45.057Z,83.70
2023-03-31T17:01:12.062Z,83.92
2023-03-31T17:03:41.577Z,83.17
2023-03-31T17:06:12.805Z,83.68
2023-03-31T17:08:39.709Z,84.36
2023-03-31T17:11:11.633Z,84.10
2023-03-31T17:13:38.499Z,85.27
2023-03-31T17:16:18.449Z,84.76
2023-03-31T17:18:48.803Z,84.37
2023-03-31T17:21:18.312Z,84.29
2023-03-31T17:23:46.157Z,84.08
2023-03-31T17:26:13.419Z,84.07
2023-03-31T17:28:40.845Z,84.63
2023-03-31T17:31:18.244Z,84.79
2023-03-31T17:33:45.035Z,84.34
2023-03-31T17:36:12.219Z,84.47
2023-03-31T17:38:39.796Z,85.11
2023-03-31T17:41:09.998Z,85.04
2023-03-31T17:43:37.892Z,84.12
2023-03-31T17:46:07.449Z,84.35
2023-03-31T17:48:35.234Z,83.95
2023-03-31T17:51:15.601Z,83.82
2023-03-31T17:53:45.028Z,83.89
2023-03-31T17:56:12.786Z,85.43
2023-03-31T17:58:39.636Z,85.83
2023-03-31T18:01:07.595Z,85.26
2023-03-31T18:03:35.089Z,84.75
2023-03-31T18:06:06.617Z,84.97
2023-03-31T18:08:34.660Z,84.75
2023-03-31T18:11:02.835Z,85.74
2023-03-31T18:13:29.543Z,86.12
2023-03-31T18:15:56.349Z,84.56
2023-03-31T18:18:23.632Z,84.99
2023-03-31T18:20:50.212Z,86.22
2023-03-31T18:23:16.669Z,85.92
2023-03-31T18:25:45.193Z,85.05
2023-03-31T18:28:18.057Z,84.93
2023-03-31T18:30:44.854Z,85.18
2023-03-31T18:33:11.713Z,86.81
2023-03-31T18:35:38.953Z,85.84
2023-03-31T18:38:05.989Z,86.18
2023-03-31T18:40:32.711Z,86.06
2023-03-31T18:42:59.265Z,86.09
2023-03-31T18:45:28.001Z,86.78
2023-03-31T18:47:54.838Z,85.27
2023-03-31T18:50:23.188Z,85.61
2023-03-31T18:52:54.187Z,85.63
2023-03-31T18:55:20.919Z,86.97
2023-03-31T18:57:47.411Z,86.28
2023-03-31T19:00:14.799Z,86.51
2023-03-31T19:02:41.971Z,86.14
2023-03-31T19:05:09.041Z,85.26
2023-03-31T19:07:36.276Z,85.45
2023-03-31T19:10:02.843Z,86.45
2023-03-31T19:12:29.384Z,86.97
2023-03-31T19:14:55.989Z,86.39
2023-03-31T19:17:22.475Z,86.20
2023-03-31T19:19:49.560Z,86.72
2023-03-31T19:22:16.816Z,86.40
2023-03-31T19:24:44.857Z,86.78
2023-03-31T19:27:12.314Z,87.09
2023-03-31T19:29:38.966Z,85.11
2023-03-31T19:32:06.252Z,85.18
2023-03-31T19:34:33.860Z,86.48
2023-03-31T19:37:01.907Z,85.11
2023-03-31T19:39:28.627Z,86.49
2023-03-31T19:41:55.204Z,85.21
2023-03-31T19:44:21.601Z,86.04
2023-03-31T19:46:48.137Z,84.95
2023-03-31T19:49:15.357Z,84.79
2023-03-31T19:51:42.139Z,85.00
2023-03-31T19:54:10.748Z,85.83
2023-03-31T19:56:38.010Z,84.77
2023-03-31T19:59:05.374Z,86.19
2023-03-31T20:01:32.872Z,85.98
2023-03-31T20:03:59.713Z,86.03
2023-03-31T20:06:28.425Z,85.04
2023-03-31T20:09:00.442Z,85.23
2023-03-31T20:11:28.715Z,86.40
2023-03-31T20:13:55.840Z,86.54
2023-03-31T20:16:25.099Z,86.61
2023-03-31T20:18:57.439Z,85.82
2023-03-31T20:21:27.221Z,86.10
2023-03-31T20:23:54.611Z,86.54
2023-03-31T20:26:25.025Z,86.50
2023-03-31T20:28:52.212Z,85.68
2023-03-31T20:31:21.574Z,85.08
2023-03-31T20:33:48.995Z,85.63
2023-03-31T20:36:18.510Z,85.74
2023-03-31T20:38:47.904Z,85.36
2023-03-31T20:41:14.724Z,86.57
2023-03-31T20:43:41.384Z,85.85
2023-03-31T20:46:09.071Z,86.38
2023-03-31T20:48:38.398Z,86.67
2023-03-31T20:51:07.173Z,86.80
2023-03-31T20:53:43.535Z,86.80
2023-03-31T20:56:21.872Z,85.82
2023-03-31T20:58:49.742Z,85.72
2023-03-31T21:01:18.154Z,86.07
2023-03-31T21:03:44.857Z,85.25
2023-03-31T21:06:14.136Z,84.86
2023-03-31T21:08:43.013Z,86.95
2023-03-31T21:11:09.905Z,85.29
2023-03-31T21:13:37.011Z,85.86
2023-03-31T21:16:04.756Z,86.03
2023-03-31T21:18:33.309Z,86.41
2023-03-31T21:21:02.856Z,86.31
2023-03-31T21:23:30.809Z,85.30
2023-03-31T21:26:00.173Z,85.61
2023-03-31T21:28:32.464Z,86.66
2023-03-31T21:31:14.595Z,85.87
2023-03-31T21:33:43.219Z,87.58
2023-03-31T21:36:13.199Z,86.11
2023-03-31T21:38:40.484Z,87.17
2023-03-31T21:41:09.589Z,87.59
2023-03-31T21:43:36.632Z,87.72
2023-03-31T21:46:03.624Z,87.21
2023-03-31T21:48:30.084Z,87.80
2023-03-31T21:51:00.251Z,87.16
2023-03-31T21:53:28.685Z,87.71
2023-03-31T21:55:56.411Z,87.78
2023-03-31T21:58:26.493Z,86.71
2023-03-31T22:00:56.089Z,87.57
2023-03-31T22:03:27.434Z,86.42
2023-03-31T22:06:07.103Z,86.09
2023-03-31T22:08:36.409Z,87.13
2023-03-31T22:11:04.279Z,86.66
2023-03-31T22:13:30.953Z,87.61
2023-03-31T22:15:58.669Z,86.42
2023-03-31T22:18:25.414Z,87.52
2023-03-31T22:20:52.370Z,86.80
2023-03-31T22:23:20.744Z,86.96
2023-03-31T22:25:47.856Z,87.72
2023-03-31T22:28:16.218Z,86.38
2023-03-31T22:30:43.954Z,87.12
2023-03-31T22:33:10.394Z,88.73
2023-03-31T22:35:37.024Z,89.20
2023-03-31T22:38:04.046Z,87.86
2023-03-31T22:40:32.153Z,88.34
2023-03-31T22:42:59.684Z,87.92
2023-03-31T22:45:26.058Z,87.21
2023-03-31T22:47:52.543Z,87.76
2023-03-31T22:50:19.073Z,87.30
2023-03-31T22:52:45.938Z,88.13
2023-03-31T22:55:12.374Z,89.00
2023-03-31T22:57:39.264Z,88.37
2023-03-31T23:00:06.519Z,88.60
2023-03-31T23:02:33.186Z,88.15
2023-03-31T23:04:59.644Z,88.71
2023-03-31T23:07:26.108Z,87.16
2023-03-31T23:09:52.554Z,87.75
2023-03-31T23:12:18.997Z,89.32
2023-03-31T23:14:45.376Z,87.87
2023-03-31T23:17:12.151Z,88.84
2023-03-31T23:19:38.713Z,88.96
2023-03-31T23:22:06.021Z,89.56
2023-03-31T23:24:32.855Z,88.36
2023-03-31T23:26:59.366Z,89.45
2023-03-31T23:29:25.976Z,89.28
2023-03-31T23:31:52.386Z,89.12
2023-03-31T23:34:18.902Z,89.63
2023-03-31T23:36:45.351Z,88.45
2023-03-31T23:39:11.736Z,88.11
2023-03-31T23:41:38.259Z,88.71
2023-03-31T23:44:06.168Z,89.07
2023-03-31T23:46:33.449Z,88.29
2023-03-31T23:49:02.508Z,87.79
2023-03-31T23:51:28.930Z,87.62
2023-03-31T23:53:55.572Z,88.06
2023-03-31T23:56:22.313Z,87.26
2023-03-31T23:58:48.901Z,88.58
